Terminal Aerodrome Forecast
Issued by NWS

Home | Current Version | Previous Version | Text Only | Print | Product List | Glossary On
Versions: 1 2 3 4 5 6 7 8 9 10 11 12 13 14 15
000
FTUS42 TJSJ 042337
TAFNCM
TAF
TNCM 042337Z 0500/0524 10010KT P6SM FEW020
     FM050400 08010KT P6SM VCSH FEW018 SCT030
     FM051400 11014KT P6SM FEW024=

USA.gov is the U.S. government's official web portal to all federal, state and local government web resources and services.